sensor_id;sensor_type;location;lat;lon;timestamp;pressure;altitude;pressure_sealevel;temperature;humidity
26719;BME280;14326;50.794;6.060;2023-02-01T00:02:02;100199.56;;;5.69;100.00
26719;BME280;14326;50.794;6.060;2023-02-01T00:04:30;100207.47;;;5.69;100.00
26719;BME280;14326;50.794;6.060;2023-02-01T00:07:00;100206.00;;;5.77;100.00
26719;BME280;14326;50.794;6.060;2023-02-01T00:09:33;100203.56;;;5.82;100.00
26719;BME280;14326;50.794;6.060;2023-02-01T00:12:02;100197.38;;;5.82;100.00
26719;BME280;14326;50.794;6.060;2023-02-01T00:14:35;100201.09;;;5.87;100.00
26719;BME280;14326;50.794;6.060;2023-02-01T00:17:13;100204.66;;;5.87;100.00
26719;BME280;14326;50.794;6.060;2023-02-01T00:19:43;100208.25;;;5.89;100.00
26719;BME280;14326;50.794;6.060;2023-02-01T00:22:12;100203.84;;;5.90;100.00
26719;BME280;14326;50.794;6.060;2023-02-01T00:24:43;100203.72;;;5.87;100.00
26719;BME280;14326;50.794;6.060;2023-02-01T00:27:12;100189.75;;;5.89;100.00
26719;BME280;14326;50.794;6.060;2023-02-01T00:29:46;100195.22;;;5.94;100.00
26719;BME280;14326;50.794;6.060;2023-02-01T00:32:18;100188.88;;;5.89;100.00
26719;BME280;14326;50.794;6.060;2023-02-01T00:34:49;100191.47;;;5.87;100.00
26719;BME280;14326;50.794;6.060;2023-02-01T00:37:21;100187.13;;;5.89;100.00
26719;BME280;14326;50.794;6.060;2023-02-01T00:39:49;100187.00;;;5.86;100.00
26719;BME280;14326;50.794;6.060;2023-02-01T00:42:16;100190.66;;;5.90;100.00
26719;BME280;14326;50.794;6.060;2023-02-01T00:44:43;100183.72;;;5.92;100.00
26719;BME280;14326;50.794;6.060;2023-02-01T00:47:09;100183.72;;;5.92;100.00
26719;BME280;14326;50.794;6.060;2023-02-01T00:49:36;100189.97;;;5.95;100.00
26719;BME280;14326;50.794;6.060;2023-02-01T00:52:03;100191.69;;;5.93;100.00
26719;BME280;14326;50.794;6.060;2023-02-01T00:54:30;100190.72;;;5.91;100.00
26719;BME280;14326;50.794;6.060;2023-02-01T00:56:59;100176.56;;;5.89;100.00
26719;BME280;14326;50.794;6.060;2023-02-01T00:59:25;100182.06;;;5.95;100.00
26719;BME280;14326;50.794;6.060;2023-02-01T01:01:52;100178.50;;;5.93;100.00
26719;BME280;14326;50.794;6.060;2023-02-01T01:04:18;100174.13;;;5.95;100.00
26719;BME280;14326;50.794;6.060;2023-02-01T01:06:45;100150.28;;;5.92;100.00
26719;BME280;14326;50.794;6.060;2023-02-01T01:09:12;100144.25;;;5.96;100.00
26719;BME280;14326;50.794;6.060;2023-02-01T01:11:38;100132.66;;;5.91;100.00
26719;BME280;14326;50.794;6.060;2023-02-01T01:14:07;100119.38;;;5.90;100.00
26719;BME280;14326;50.794;6.060;2023-02-01T01:16:34;100108.09;;;5.94;100.00
26719;BME280;14326;50.794;6.060;2023-02-01T01:19:01;100119.59;;;5.96;100.00
26719;BME280;14326;50.794;6.060;2023-02-01T01:21:30;100126.59;;;5.94;100.00
26719;BME280;14326;50.794;6.060;2023-02-01T01:23:57;100131.91;;;5.95;100.00
26719;BME280;14326;50.794;6.060;2023-02-01T01:26:25;100133.59;;;5.93;100.00
26719;BME280;14326;50.794;6.060;2023-02-01T01:28:54;100138.06;;;5.94;100.00
26719;BME280;14326;50.794;6.060;2023-02-01T01:31:23;100149.38;;;5.92;100.00
26719;BME280;14326;50.794;6.060;2023-02-01T01:33:51;100168.84;;;5.94;100.00
26719;BME280;14326;50.794;6.060;2023-02-01T01:36:19;100176.00;;;5.98;100.00
26719;BME280;14326;50.794;6.060;2023-02-01T01:38:46;100173.28;;;5.95;100.00
26719;BME280;14326;50.794;6.060;2023-02-01T01:41:15;100161.81;;;5.94;100.00
26719;BME280;14326;50.794;6.060;2023-02-01T01:43:54;100163.56;;;5.94;100.00
26719;BME280;14326;50.794;6.060;2023-02-01T01:46:24;100169.75;;;5.96;100.00
26719;BME280;14326;50.794;6.060;2023-02-01T01:48:55;100166.22;;;5.95;100.00
26719;BME280;14326;50.794;6.060;2023-02-01T01:51:24;100157.47;;;5.96;100.00
26719;BME280;14326;50.794;6.060;2023-02-01T01:53:57;100160.16;;;5.98;100.00
26719;BME280;14326;50.794;6.060;2023-02-01T01:56:26;100154.03;;;5.99;100.00
26719;BME280;14326;50.794;6.060;2023-02-01T01:58:55;100154.81;;;5.96;100.00
26719;BME280;14326;50.794;6.060;2023-02-01T02:01:23;100156.63;;;5.97;100.00
26719;BME280;14326;50.794;6.060;2023-02-01T02:03:51;100159.31;;;5.99;100.00
26719;BME280;14326;50.794;6.060;2023-02-01T02:06:25;100150.50;;;5.98;100.00
26719;BME280;14326;50.794;6.060;2023-02-01T02:08:54;100146.19;;;6.00;100.00
26719;BME280;14326;50.794;6.060;2023-02-01T02:11:21;100138.28;;;6.02;100.00
26719;BME280;14326;50.794;6.060;2023-02-01T02:13:50;100133.84;;;6.01;100.00
26719;BME280;14326;50.794;6.060;2023-02-01T02:16:30;100139.03;;;5.98;100.00
26719;BME280;14326;50.794;6.060;2023-02-01T02:22:31;100145.28;;;6.00;100.00
26719;BME280;14326;50.794;6.060;2023-02-01T02:28:21;100128.63;;;6.02;100.00
26719;BME280;14326;50.794;6.060;2023-02-01T02:31:08;100136.34;;;5.96;100.00
26719;BME280;14326;50.794;6.060;2023-02-01T02:34:06;100137.31;;;5.98;100.00
26719;BME280;14326;50.794;6.060;2023-02-01T02:36:42;100140.84;;;5.99;100.00
26719;BME280;14326;50.794;6.060;2023-02-01T02:39:20;100149.91;;;6.07;100.00
26719;BME280;14326;50.794;6.060;2023-02-01T02:41:54;100150.66;;;6.03;100.00
26719;BME280;14326;50.794;6.060;2023-02-01T02:44:46;100149.69;;;6.01;100.00
26719;BME280;14326;50.794;6.060;2023-02-01T02:47:57;100133.16;;;6.05;100.00
26719;BME280;14326;50.794;6.060;2023-02-01T02:50:38;100141.28;;;6.11;100.00
26719;BME280;14326;50.794;6.060;2023-02-01T02:53:32;100153.75;;;6.15;100.00
26719;BME280;14326;50.794;6.060;2023-02-01T02:56:20;100149.44;;;6.18;100.00
26719;BME280;14326;50.794;6.060;2023-02-01T02:59:12;100155.69;;;6.21;100.00
26719;BME280;14326;50.794;6.060;2023-02-01T03:02:01;100160.13;;;6.22;100.00
26719;BME280;14326;50.794;6.060;2023-02-01T03:04:52;100138.22;;;6.24;100.00
26719;BME280;14326;50.794;6.060;2023-02-01T03:07:52;100146.03;;;6.21;100.00
26719;BME280;14326;50.794;6.060;2023-02-01T03:10:28;100145.25;;;6.24;100.00
26719;BME280;14326;50.794;6.060;2023-02-01T03:13:02;100141.66;;;6.22;100.00
26719;BME280;14326;50.794;6.060;2023-02-01T03:15:38;100138.84;;;6.17;100.00
26719;BME280;14326;50.794;6.060;2023-02-01T03:18:12;100133.66;;;6.20;100.00
26719;BME280;14326;50.794;6.060;2023-02-01T03:20:51;100139.69;;;6.16;100.00
26719;BME280;14326;50.794;6.060;2023-02-01T03:23:27;100137.00;;;6.14;100.00
26719;BME280;14326;50.794;6.060;2023-02-01T03:25:56;100137.91;;;6.15;100.00
26719;BME280;14326;50.794;6.060;2023-02-01T03:28:28;100142.97;;;6.09;100.00
26719;BME280;14326;50.794;6.060;2023-02-01T03:31:00;100136.06;;;6.12;100.00
26719;BME280;14326;50.794;6.060;2023-02-01T03:33:27;100144.69;;;6.08;100.00
26719;BME280;14326;50.794;6.060;2023-02-01T03:36:05;100130.66;;;6.09;100.00
26719;BME280;14326;50.794;6.060;2023-02-01T03:38:43;100134.03;;;6.05;100.00
26719;BME280;14326;50.794;6.060;2023-02-01T03:41:24;100126.81;;;6.00;100.00
26719;BME280;14326;50.794;6.060;2023-02-01T03:44:03;100122.44;;;6.00;100.00
26719;BME280;14326;50.794;6.060;2023-02-01T03:46:33;100129.38;;;5.98;100.00
26719;BME280;14326;50.794;6.060;2023-02-01T03:49:03;100121.41;;;5.97;100.00
26719;BME280;14326;50.794;6.060;2023-02-01T03:51:41;100123.06;;;5.93;100.00
26719;BME280;14326;50.794;6.060;2023-02-01T03:54:20;100121.25;;;5.92;100.00
26719;BME280;14326;50.794;6.060;2023-02-01T03:56:50;100123.75;;;5.89;100.00
26719;BME280;14326;50.794;6.060;2023-02-01T03:59:19;100121.59;;;5.79;100.00
26719;BME280;14326;50.794;6.060;2023-02-01T04:01:46;100116.09;;;5.73;100.00
26719;BME280;14326;50.794;6.060;2023-02-01T04:04:22;100119.59;;;5.72;100.00
26719;BME280;14326;50.794;6.060;2023-02-01T04:06:49;100111.50;;;5.67;100.00
26719;BME280;14326;50.794;6.060;2023-02-01T04:09:18;100109.91;;;5.71;100.00
26719;BME280;14326;50.794;6.060;2023-02-01T04:11:44;100116.84;;;5.69;100.00
26719;BME280;14326;50.794;6.060;2023-02-01T04:14:11;100125.44;;;5.63;100.00
26719;BME280;14326;50.794;6.060;2023-02-01T04:16:37;100122.81;;;5.63;100.00
26719;BME280;14326;50.794;6.060;2023-02-01T04:19:04;100136.66;;;5.58;100.00
26719;BME280;14326;50.794;6.060;2023-02-01T04:21:31;100130.50;;;5.57;100.00
26719;BME280;14326;50.794;6.060;2023-02-01T04:23:57;100142.38;;;5.46;100.00
26719;BME280;14326;50.794;6.060;2023-02-01T04:26:25;100141.31;;;5.41;100.00
26719;BME280;14326;50.794;6.060;2023-02-01T04:28:52;100139.34;;;5.35;100.00
26719;BME280;14326;50.794;6.060;2023-02-01T04:31:19;100154.22;;;5.33;100.00
26719;BME280;14326;50.794;6.060;2023-02-01T04:33:51;100144.44;;;5.31;100.00
26719;BME280;14326;50.794;6.060;2023-02-01T04:36:18;100143.34;;;5.26;100.00
26719;BME280;14326;50.794;6.060;2023-02-01T04:38:47;100146.97;;;5.28;100.00
26719;BME280;14326;50.794;6.060;2023-02-01T04:41:13;100156.44;;;5.23;100.00
26719;BME280;14326;50.794;6.060;2023-02-01T04:43:42;100153.91;;;5.26;100.00
26719;BME280;14326;50.794;6.060;2023-02-01T04:46:08;100149.66;;;5.29;100.00
26719;BME280;14326;50.794;6.060;2023-02-01T04:48:35;100146.13;;;5.29;100.00
26719;BME280;14326;50.794;6.060;2023-02-01T04:51:02;100148.88;;;5.32;100.00
26719;BME280;14326;50.794;6.060;2023-02-01T04:53:28;100140.13;;;5.33;100.00
26719;BME280;14326;50.794;6.060;2023-02-01T04:55:55;100146.16;;;5.30;100.00
26719;BME280;14326;50.794;6.060;2023-02-01T04:58:22;100127.94;;;5.36;100.00
26719;BME280;14326;50.794;6.060;2023-02-01T05:00:50;100120.22;;;5.41;100.00
26719;BME280;14326;50.794;6.060;2023-02-01T05:03:17;100113.97;;;5.39;100.00
26719;BME280;14326;50.794;6.060;2023-02-01T05:05:43;100119.13;;;5.36;100.00
26719;BME280;14326;50.794;6.060;2023-02-01T05:08:10;100125.25;;;5.35;100.00
26719;BME280;14326;50.794;6.060;2023-02-01T05:10:37;100121.75;;;5.36;100.00
26719;BME280;14326;50.794;6.060;2023-02-01T05:13:03;100118.19;;;5.34;100.00
26719;BME280;14326;50.794;6.060;2023-02-01T05:15:47;100112.69;;;5.28;100.00
26719;BME280;14326;50.794;6.060;2023-02-01T05:18:15;100122.50;;;5.32;100.00
26719;BME280;14326;50.794;6.060;2023-02-01T05:20:42;100117.13;;;5.29;100.00
26719;BME280;14326;50.794;6.060;2023-02-01T05:23:09;100113.56;;;5.28;100.00
26719;BME280;14326;50.794;6.060;2023-02-01T05:25:35;100107.25;;;5.23;100.00
26719;BME280;14326;50.794;6.060;2023-02-01T05:28:02;100107.09;;;5.20;100.00
26719;BME280;14326;50.794;6.060;2023-02-01T05:30:29;100108.75;;;5.17;100.00
26719;BME280;14326;50.794;6.060;2023-02-01T05:32:55;100117.56;;;5.17;100.00
26719;BME280;14326;50.794;6.060;2023-02-01T05:35:23;100116.56;;;5.15;100.00
26719;BME280;14326;50.794;6.060;2023-02-01T05:37:51;100115.75;;;5.16;100.00
26719;BME280;14326;50.794;6.060;2023-02-01T05:40:17;100113.03;;;5.15;100.00
26719;BME280;14326;50.794;6.060;2023-02-01T05:42:44;100114.94;;;5.19;100.00
26719;BME280;14326;50.794;6.060;2023-02-01T05:45:11;100116.66;;;5.17;100.00
26719;BME280;14326;50.794;6.060;2023-02-01T05:47:37;100131.56;;;5.16;100.00
26719;BME280;14326;50.794;6.060;2023-02-01T05:50:05;100136.47;;;5.07;100.00
26719;BME280;14326;50.794;6.060;2023-02-01T05:52:34;100134.63;;;5.05;100.00
26719;BME280;14326;50.794;6.060;2023-02-01T05:55:00;100135.34;;;5.01;100.00
26719;BME280;14326;50.794;6.060;2023-02-01T05:57:27;100124.69;;;4.98;100.00
26719;BME280;14326;50.794;6.060;2023-02-01T05:59:53;100121.97;;;4.96;100.00
26719;BME280;14326;50.794;6.060;2023-02-01T06:02:20;100117.50;;;4.93;100.00
26719;BME280;14326;50.794;6.060;2023-02-01T06:04:49;100109.69;;;4.97;100.00
26719;BME280;14326;50.794;6.060;2023-02-01T06:07:16;100110.50;;;4.94;100.00
26719;BME280;14326;50.794;6.060;2023-02-01T06:09:43;100114.97;;;4.97;100.00
26719;BME280;14326;50.794;6.060;2023-02-01T06:12:10;100108.75;;;4.94;100.00
26719;BME280;14326;50.794;6.060;2023-02-01T06:14:37;100105.88;;;4.88;100.00
26719;BME280;14326;50.794;6.060;2023-02-01T06:17:04;100113.06;;;4.92;100.00
26719;BME280;14326;50.794;6.060;2023-02-01T06:19:31;100109.44;;;4.90;100.00
26719;BME280;14326;50.794;6.060;2023-02-01T06:21:58;100115.78;;;4.95;100.00
26719;BME280;14326;50.794;6.060;2023-02-01T06:24:24;100125.34;;;4.92;100.00
26719;BME280;14326;50.794;6.060;2023-02-01T06:26:52;100119.94;;;4.89;100.00
26719;BME280;14326;50.794;6.060;2023-02-01T06:29:19;100125.84;;;4.83;100.00
26719;BME280;14326;50.794;6.060;2023-02-01T06:31:45;100132.03;;;4.84;100.00
26719;BME280;14326;50.794;6.060;2023-02-01T06:34:12;100143.34;;;4.81;100.00
26719;BME280;14326;50.794;6.060;2023-02-01T06:36:38;100138.91;;;4.80;100.00
26719;BME280;14326;50.794;6.060;2023-02-01T06:39:05;100139.69;;;4.78;100.00
26719;BME280;14326;50.794;6.060;2023-02-01T06:41:32;100141.41;;;4.77;100.00
26719;BME280;14326;50.794;6.060;2023-02-01T06:44:01;100136.03;;;4.74;100.00
26719;BME280;14326;50.794;6.060;2023-02-01T06:46:36;100147.56;;;4.76;100.00
26719;BME280;14326;50.794;6.060;2023-02-01T06:49:11;100151.03;;;4.75;100.00
26719;BME280;14326;50.794;6.060;2023-02-01T06:51:46;100162.38;;;4.74;100.00
26719;BME280;14326;50.794;6.060;2023-02-01T06:54:14;100164.38;;;4.80;100.00
26719;BME280;14326;50.794;6.060;2023-02-01T06:56:44;100164.19;;;4.75;100.00
26719;BME280;14326;50.794;6.060;2023-02-01T06:59:14;100163.09;;;4.70;100.00
26719;BME280;14326;50.794;6.060;2023-02-01T07:01:41;100157.78;;;4.69;100.00
26719;BME280;14326;50.794;6.060;2023-02-01T07:04:09;100158.53;;;4.66;100.00
26719;BME280;14326;50.794;6.060;2023-02-01T07:06:47;100162.13;;;4.68;100.00
26719;BME280;14326;50.794;6.060;2023-02-01T07:09:13;100169.06;;;4.66;100.00
26719;BME280;14326;50.794;6.060;2023-02-01T07:11:40;100183.78;;;4.61;100.00
26719;BME280;14326;50.794;6.060;2023-02-01T07:14:08;100176.03;;;4.64;100.00
26719;BME280;14326;50.794;6.060;2023-02-01T07:16:37;100184.03;;;4.67;100.00
26719;BME280;14326;50.794;6.060;2023-02-01T07:19:03;100176.31;;;4.72;100.00
26719;BME280;14326;50.794;6.060;2023-02-01T07:21:30;100182.38;;;4.69;100.00
26719;BME280;14326;50.794;6.060;2023-02-01T07:23:58;100191.31;;;4.73;100.00
26719;BME280;14326;50.794;6.060;2023-02-01T07:26:25;100177.28;;;4.74;100.00
26719;BME280;14326;50.794;6.060;2023-02-01T07:28:52;100178.19;;;4.74;100.00
26719;BME280;14326;50.794;6.060;2023-02-01T07:31:19;100197.47;;;4.73;100.00
26719;BME280;14326;50.794;6.060;2023-02-01T07:33:49;100192.13;;;4.72;100.00
26719;BME280;14326;50.794;6.060;2023-02-01T07:36:17;100178.38;;;4.79;100.00
26719;BME280;14326;50.794;6.060;2023-02-01T07:38:44;100172.34;;;4.81;100.00
26719;BME280;14326;50.794;6.060;2023-02-01T07:41:12;100173.94;;;4.78;100.00
26719;BME280;14326;50.794;6.060;2023-02-01T07:43:38;100178.56;;;4.83;100.00
26719;BME280;14326;50.794;6.060;2023-02-01T07:46:06;100171.53;;;4.82;100.00
26719;BME280;14326;50.794;6.060;2023-02-01T07:48:33;100189.09;;;4.83;100.00
26719;BME280;14326;50.794;6.060;2023-02-01T07:51:06;100189.25;;;4.86;100.00
26719;BME280;14326;50.794;6.060;2023-02-01T07:53:33;100188.41;;;4.87;100.00
26719;BME280;14326;50.794;6.060;2023-02-01T07:56:01;100178.69;;;4.86;100.00
26719;BME280;14326;50.794;6.060;2023-02-01T07:58:27;100175.81;;;4.80;100.00
26719;BME280;14326;50.794;6.060;2023-02-01T08:00:54;100179.84;;;4.72;100.00
26719;BME280;14326;50.794;6.060;2023-02-01T08:03:38;100178.44;;;4.80;100.00
26719;BME280;14326;50.794;6.060;2023-02-01T08:06:06;100177.03;;;4.88;100.00
26719;BME280;14326;50.794;6.060;2023-02-01T08:08:33;100173.78;;;4.95;100.00
26719;BME280;14326;50.794;6.060;2023-02-01T08:11:01;100177.63;;;5.04;100.00
26719;BME280;14326;50.794;6.060;2023-02-01T08:13:28;100169.97;;;5.32;100.00
26719;BME280;14326;50.794;6.060;2023-02-01T08:15:57;100179.59;;;5.54;100.00
26719;BME280;14326;50.794;6.060;2023-02-01T08:18:24;100181.22;;;5.50;100.00
26719;BME280;14326;50.794;6.060;2023-02-01T08:20:51;100186.03;;;5.38;100.00
26719;BME280;14326;50.794;6.060;2023-02-01T08:23:19;100190.72;;;5.23;100.00
26719;BME280;14326;50.794;6.060;2023-02-01T08:25:46;100192.16;;;5.15;100.00
26719;BME280;14326;50.794;6.060;2023-02-01T08:28:15;100189.41;;;5.12;100.00
26719;BME280;14326;50.794;6.060;2023-02-01T08:30:42;100201.53;;;5.08;100.00
26719;BME280;14326;50.794;6.060;2023-02-01T08:33:09;100195.50;;;5.11;100.00
26719;BME280;14326;50.794;6.060;2023-02-01T08:35:37;100200.13;;;5.16;100.00
26719;BME280;14326;50.794;6.060;2023-02-01T08:38:04;100200.13;;;5.16;100.00
26719;BME280;14326;50.794;6.060;2023-02-01T08:40:32;100210.00;;;5.22;100.00
26719;BME280;14326;50.794;6.060;2023-02-01T08:42:59;100218.75;;;5.21;100.00
26719;BME280;14326;50.794;6.060;2023-02-01T08:45:28;100214.50;;;5.24;100.00
26719;BME280;14326;50.794;6.060;2023-02-01T08:47:56;100223.31;;;5.25;100.00
26719;BME280;14326;50.794;6.060;2023-02-01T08:50:23;100213.00;;;5.31;100.00
26719;BME280;14326;50.794;6.060;2023-02-01T08:52:50;100212.66;;;5.44;100.00
26719;BME280;14326;50.794;6.060;2023-02-01T08:55:17;100206.72;;;5.50;100.00
26719;BME280;14326;50.794;6.060;2023-02-01T08:57:45;100225.25;;;5.51;100.00
26719;BME280;14326;50.794;6.060;2023-02-01T09:00:14;100226.91;;;5.49;100.00
26719;BME280;14326;50.794;6.060;2023-02-01T09:02:41;100228.97;;;5.56;100.00
26719;BME280;14326;50.794;6.060;2023-02-01T09:05:09;100224.88;;;5.64;100.00
26719;BME280;14326;50.794;6.060;2023-02-01T09:07:36;100223.25;;;5.68;100.00
26719;BME280;14326;50.794;6.060;2023-02-01T09:10:04;100236.50;;;5.69;99.89
26719;BME280;14326;50.794;6.060;2023-02-01T09:12:32;100223.25;;;5.68;100.00
26719;BME280;14326;50.794;6.060;2023-02-01T09:15:01;100215.56;;;5.74;100.00
26719;BME280;14326;50.794;6.060;2023-02-01T09:17:28;100219.16;;;5.76;99.27
26719;BME280;14326;50.794;6.060;2023-02-01T09:19:55;100220.16;;;5.80;100.00
26719;BME280;14326;50.794;6.060;2023-02-01T09:22:22;100215.88;;;5.82;99.57
26719;BME280;14326;50.794;6.060;2023-02-01T09:24:48;100223.22;;;5.89;98.88
26719;BME280;14326;50.794;6.060;2023-02-01T09:27:15;100217.13;;;5.91;98.69
26719;BME280;14326;50.794;6.060;2023-02-01T09:29:42;100210.94;;;5.91;98.64
26719;BME280;14326;50.794;6.060;2023-02-01T09:32:10;100219.56;;;5.87;98.51
26719;BME280;14326;50.794;6.060;2023-02-01T09:34:36;100210.75;;;5.86;98.78
26719;BME280;14326;50.794;6.060;2023-02-01T09:37:03;100206.56;;;5.91;99.01
26719;BME280;14326;50.794;6.060;2023-02-01T09:39:29;100212.75;;;5.92;99.04
26719;BME280;14326;50.794;6.060;2023-02-01T09:42:12;100207.63;;;5.96;98.49
26719;BME280;14326;50.794;6.060;2023-02-01T09:44:53;100208.44;;;5.94;98.34
26719;BME280;14326;50.794;6.060;2023-02-01T09:47:25;100191.06;;;6.00;98.38
26719;BME280;14326;50.794;6.060;2023-02-01T09:49:56;100197.28;;;6.02;97.83
26719;BME280;14326;50.794;6.060;2023-02-01T09:52:31;100188.69;;;6.08;97.23
26719;BME280;14326;50.794;6.060;2023-02-01T09:55:04;100182.72;;;6.13;96.86
26719;BME280;14326;50.794;6.060;2023-02-01T09:57:43;100182.91;;;6.18;96.69
26719;BME280;14326;50.794;6.060;2023-02-01T10:00:16;100182.84;;;6.16;96.63
26719;BME280;14326;50.794;6.060;2023-02-01T10:02:46;100186.50;;;6.20;96.74
26719;BME280;14326;50.794;6.060;2023-02-01T10:05:14;100179.59;;;6.24;96.75
26719;BME280;14326;50.794;6.060;2023-02-01T10:07:49;100190.25;;;6.27;96.68
26719;BME280;14326;50.794;6.060;2023-02-01T10:10:25;100176.25;;;6.29;96.26
26719;BME280;14326;50.794;6.060;2023-02-01T10:13:12;100186.09;;;6.33;95.96
26719;BME280;14326;50.794;6.060;2023-02-01T10:15:55;100174.47;;;6.28;96.27
26719;BME280;14326;50.794;6.060;2023-02-01T10:18:47;100187.72;;;6.30;95.93
26719;BME280;14326;50.794;6.060;2023-02-01T10:21:37;100200.34;;;6.38;95.09
26719;BME280;14326;50.794;6.060;2023-02-01T10:24:32;100180.06;;;6.37;95.45
26719;BME280;14326;50.794;6.060;2023-02-01T10:27:02;100184.63;;;6.41;95.09
26719;BME280;14326;50.794;6.060;2023-02-01T10:29:37;100182.91;;;6.43;95.10
26719;BME280;14326;50.794;6.060;2023-02-01T10:32:12;100187.50;;;6.49;96.02
26719;BME280;14326;50.794;6.060;2023-02-01T10:34:41;100186.81;;;6.54;95.15
26719;BME280;14326;50.794;6.060;2023-02-01T10:37:16;100186.81;;;6.54;94.70
26719;BME280;14326;50.794;6.060;2023-02-01T10:39:45;100180.94;;;6.63;94.53
26719;BME280;14326;50.794;6.060;2023-02-01T10:42:13;100175.53;;;6.58;94.64
26719;BME280;14326;50.794;6.060;2023-02-01T10:44:42;100170.31;;;6.62;94.82
26719;BME280;14326;50.794;6.060;2023-02-01T10:47:11;100184.50;;;6.64;94.61
26719;BME280;14326;50.794;6.060;2023-02-01T10:49:40;100181.16;;;6.69;93.67
26719;BME280;14326;50.794;6.060;2023-02-01T10:52:13;100190.97;;;6.73;93.94
26719;BME280;14326;50.794;6.060;2023-02-01T10:54:41;100179.34;;;6.68;92.80
26719;BME280;14326;50.794;6.060;2023-02-01T10:57:08;100178.53;;;6.69;94.10
26719;BME280;14326;50.794;6.060;2023-02-01T10:59:35;100180.31;;;6.70;93.72
26719;BME280;14326;50.794;6.060;2023-02-01T11:02:17;100180.31;;;6.70;93.13
26719;BME280;14326;50.794;6.060;2023-02-01T11:04:46;100175.06;;;6.72;94.16
26719;BME280;14326;50.794;6.060;2023-02-01T11:07:17;100160.00;;;6.69;93.38
26719;BME280;14326;50.794;6.060;2023-02-01T11:09:50;100192.72;;;6.73;93.28
26719;BME280;14326;50.794;6.060;2023-02-01T11:12:27;100148.53;;;6.69;93.18
26719;BME280;14326;50.794;6.060;2023-02-01T11:14:59;100147.84;;;6.74;93.22
26719;BME280;14326;50.794;6.060;2023-02-01T11:17:31;100148.81;;;6.78;93.29
26719;BME280;14326;50.794;6.060;2023-02-01T11:19:59;100152.06;;;6.96;93.37
26719;BME280;14326;50.794;6.060;2023-02-01T11:22:28;100162.13;;;7.08;92.59
26719;BME280;14326;50.794;6.060;2023-02-01T11:24:56;100147.13;;;7.07;92.42
26719;BME280;14326;50.794;6.060;2023-02-01T11:27:24;100151.81;;;7.15;92.36
26719;BME280;14326;50.794;6.060;2023-02-01T11:29:54;100163.56;;;7.25;92.13
26719;BME280;14326;50.794;6.060;2023-02-01T11:32:23;100145.28;;;7.32;91.31
26719;BME280;14326;50.794;6.060;2023-02-01T11:34:54;100140.94;;;7.34;91.58
26719;BME280;14326;50.794;6.060;2023-02-01T11:37:25;100133.97;;;7.38;91.59
26719;BME280;14326;50.794;6.060;2023-02-01T11:39:56;100138.47;;;7.40;90.71
26719;BME280;14326;50.794;6.060;2023-02-01T11:42:23;100132.41;;;7.45;89.83
26719;BME280;14326;50.794;6.060;2023-02-01T11:44:50;100115.75;;;7.49;89.14
26719;BME280;14326;50.794;6.060;2023-02-01T11:47:25;100112.31;;;7.51;88.17
26719;BME280;14326;50.794;6.060;2023-02-01T11:49:53;100096.69;;;7.59;88.06
26719;BME280;14326;50.794;6.060;2023-02-01T11:52:34;100096.69;;;7.59;87.77
26719;BME280;14326;50.794;6.060;2023-02-01T11:55:16;100095.94;;;7.64;88.08
26719;BME280;14326;50.794;6.060;2023-02-01T11:57:57;100097.66;;;7.62;88.70
26719;BME280;14326;50.794;6.060;2023-02-01T12:00:36;100100.00;;;7.52;88.63
26719;BME280;14326;50.794;6.060;2023-02-01T12:03:25;100112.19;;;7.47;88.68
26719;BME280;14326;50.794;6.060;2023-02-01T12:05:59;100120.03;;;7.44;88.25
26719;BME280;14326;50.794;6.060;2023-02-01T12:09:02;100101.50;;;7.44;87.81
26719;BME280;14326;50.794;6.060;2023-02-01T12:11:46;100095.38;;;7.45;88.07
26719;BME280;14326;50.794;6.060;2023-02-01T12:14:25;100104.22;;;7.45;87.57
26719;BME280;14326;50.794;6.060;2023-02-01T12:17:30;100100.59;;;7.43;88.36
26719;BME280;14326;50.794;6.060;2023-02-01T12:20:17;100102.16;;;7.36;88.50
26719;BME280;14326;50.794;6.060;2023-02-01T12:22:56;100107.25;;;7.29;89.17
26719;BME280;14326;50.794;6.060;2023-02-01T12:25:34;100109.97;;;7.32;89.33
26719;BME280;14326;50.794;6.060;2023-02-01T12:31:31;100103.53;;;7.22;89.40
26719;BME280;14326;50.794;6.060;2023-02-01T12:34:11;100107.06;;;7.23;89.75
26719;BME280;14326;50.794;6.060;2023-02-01T12:36:46;100100.16;;;7.28;89.42
26719;BME280;14326;50.794;6.060;2023-02-01T12:39:23;100098.41;;;7.28;89.88
26719;BME280;14326;50.794;6.060;2023-02-01T12:41:57;100095.84;;;7.31;90.14
26719;BME280;14326;50.794;6.060;2023-02-01T12:44:35;100087.00;;;7.29;89.76
26719;BME280;14326;50.794;6.060;2023-02-01T12:47:11;100085.84;;;7.21;89.15
26719;BME280;14326;50.794;6.060;2023-02-01T12:49:46;100082.41;;;7.24;89.34
26719;BME280;14326;50.794;6.060;2023-02-01T12:52:18;100088.44;;;7.18;90.07
26719;BME280;14326;50.794;6.060;2023-02-01T12:54:49;100095.66;;;7.25;90.11
26719;BME280;14326;50.794;6.060;2023-02-01T12:57:22;100080.63;;;7.23;90.30
26719;BME280;14326;50.794;6.060;2023-02-01T12:59:54;100089.47;;;7.23;89.95
26719;BME280;14326;50.794;6.060;2023-02-01T13:02:30;100085.97;;;7.24;89.90
26719;BME280;14326;50.794;6.060;2023-02-01T13:05:05;100085.09;;;7.25;89.99
26719;BME280;14326;50.794;6.060;2023-02-01T13:07:41;100069.25;;;7.27;90.42
26719;BME280;14326;50.794;6.060;2023-02-01T13:10:13;100069.22;;;7.25;89.89
26719;BME280;14326;50.794;6.060;2023-02-01T13:12:45;100075.41;;;7.26;90.59
26719;BME280;14326;50.794;6.060;2023-02-01T13:15:17;100079.78;;;7.25;90.15
26719;BME280;14326;50.794;6.060;2023-02-01T13:17:47;100070.94;;;7.23;90.05
26719;BME280;14326;50.794;6.060;2023-02-01T13:20:19;100084.19;;;7.25;90.60
26719;BME280;14326;50.794;6.060;2023-02-01T13:22:51;100071.78;;;7.22;90.39
26719;BME280;14326;50.794;6.060;2023-02-01T13:25:28;100070.94;;;7.23;90.55